sensor_id;sensor_type;location;lat;lon;timestamp;P1;durP1;ratioP1;P2;durP2;ratioP2
4885;SDS011;2457;51.788;6.136;2023-12-07T00:01:34;8.40;;;4.40;;
4885;SDS011;2457;51.788;6.136;2023-12-07T00:04:03;9.30;;;4.93;;
4885;SDS011;2457;51.788;6.136;2023-12-07T00:06:30;8.77;;;4.70;;
4885;SDS011;2457;51.788;6.136;2023-12-07T00:08:58;7.80;;;4.70;;
4885;SDS011;2457;51.788;6.136;2023-12-07T00:11:27;10.33;;;5.07;;
4885;SDS011;2457;51.788;6.136;2023-12-07T00:13:54;8.40;;;4.87;;
4885;SDS011;2457;51.788;6.136;2023-12-07T00:16:21;8.10;;;4.70;;
4885;SDS011;2457;51.788;6.136;2023-12-07T00:18:48;7.47;;;4.27;;
4885;SDS011;2457;51.788;6.136;2023-12-07T00:21:16;8.83;;;5.10;;
4885;SDS011;2457;51.788;6.136;2023-12-07T00:23:43;8.30;;;4.87;;
4885;SDS011;2457;51.788;6.136;2023-12-07T00:26:10;11.40;;;5.10;;
4885;SDS011;2457;51.788;6.136;2023-12-07T00:28:37;7.37;;;4.43;;
4885;SDS011;2457;51.788;6.136;2023-12-07T00:31:05;7.50;;;4.47;;
4885;SDS011;2457;51.788;6.136;2023-12-07T00:33:32;8.00;;;4.50;;
4885;SDS011;2457;51.788;6.136;2023-12-07T00:35:59;8.50;;;4.53;;
4885;SDS011;2457;51.788;6.136;2023-12-07T00:38:26;8.57;;;4.93;;
4885;SDS011;2457;51.788;6.136;2023-12-07T00:40:54;8.40;;;5.00;;
4885;SDS011;2457;51.788;6.136;2023-12-07T00:43:21;9.63;;;5.40;;
4885;SDS011;2457;51.788;6.136;2023-12-07T00:45:48;8.13;;;4.73;;
4885;SDS011;2457;51.788;6.136;2023-12-07T00:48:15;7.27;;;5.20;;
4885;SDS011;2457;51.788;6.136;2023-12-07T00:50:43;7.33;;;4.67;;
4885;SDS011;2457;51.788;6.136;2023-12-07T00:53:10;9.23;;;5.30;;
4885;SDS011;2457;51.788;6.136;2023-12-07T00:55:37;8.63;;;5.07;;
4885;SDS011;2457;51.788;6.136;2023-12-07T00:58:06;7.97;;;4.63;;
4885;SDS011;2457;51.788;6.136;2023-12-07T01:00:33;9.00;;;4.63;;
4885;SDS011;2457;51.788;6.136;2023-12-07T01:03:01;7.60;;;4.70;;
4885;SDS011;2457;51.788;6.136;2023-12-07T01:05:28;7.80;;;5.30;;
4885;SDS011;2457;51.788;6.136;2023-12-07T01:07:55;9.60;;;4.83;;
4885;SDS011;2457;51.788;6.136;2023-12-07T01:10:22;9.20;;;5.73;;
4885;SDS011;2457;51.788;6.136;2023-12-07T01:12:50;7.80;;;4.90;;
4885;SDS011;2457;51.788;6.136;2023-12-07T01:15:17;9.53;;;5.00;;
4885;SDS011;2457;51.788;6.136;2023-12-07T01:17:44;8.20;;;5.20;;
4885;SDS011;2457;51.788;6.136;2023-12-07T01:20:11;6.53;;;3.90;;
4885;SDS011;2457;51.788;6.136;2023-12-07T01:22:44;8.23;;;3.63;;
4885;SDS011;2457;51.788;6.136;2023-12-07T01:25:09;6.77;;;3.63;;
4885;SDS011;2457;51.788;6.136;2023-12-07T01:27:36;8.87;;;4.33;;
4885;SDS011;2457;51.788;6.136;2023-12-07T01:30:03;9.50;;;4.50;;
4885;SDS011;2457;51.788;6.136;2023-12-07T01:32:31;8.10;;;4.77;;
4885;SDS011;2457;51.788;6.136;2023-12-07T01:34:58;9.13;;;4.70;;
4885;SDS011;2457;51.788;6.136;2023-12-07T01:37:25;7.53;;;4.30;;
4885;SDS011;2457;51.788;6.136;2023-12-07T01:39:53;7.90;;;4.73;;
4885;SDS011;2457;51.788;6.136;2023-12-07T01:42:21;7.60;;;5.00;;
4885;SDS011;2457;51.788;6.136;2023-12-07T01:44:48;7.63;;;4.77;;
4885;SDS011;2457;51.788;6.136;2023-12-07T01:47:16;7.10;;;4.27;;
4885;SDS011;2457;51.788;6.136;2023-12-07T01:49:43;7.83;;;4.50;;
4885;SDS011;2457;51.788;6.136;2023-12-07T01:52:11;7.80;;;4.77;;
4885;SDS011;2457;51.788;6.136;2023-12-07T01:54:38;8.90;;;5.20;;
4885;SDS011;2457;51.788;6.136;2023-12-07T01:57:06;10.30;;;4.50;;
4885;SDS011;2457;51.788;6.136;2023-12-07T01:59:34;10.07;;;5.40;;
4885;SDS011;2457;51.788;6.136;2023-12-07T02:02:01;8.03;;;4.50;;
4885;SDS011;2457;51.788;6.136;2023-12-07T02:04:28;9.50;;;5.10;;
4885;SDS011;2457;51.788;6.136;2023-12-07T02:06:57;6.97;;;4.57;;
4885;SDS011;2457;51.788;6.136;2023-12-07T02:09:24;8.47;;;4.87;;
4885;SDS011;2457;51.788;6.136;2023-12-07T02:11:52;11.40;;;5.00;;
4885;SDS011;2457;51.788;6.136;2023-12-07T02:14:19;7.77;;;4.40;;
4885;SDS011;2457;51.788;6.136;2023-12-07T02:16:51;9.93;;;5.10;;
4885;SDS011;2457;51.788;6.136;2023-12-07T02:21:47;10.47;;;4.90;;
4885;SDS011;2457;51.788;6.136;2023-12-07T02:24:16;7.23;;;4.50;;
4885;SDS011;2457;51.788;6.136;2023-12-07T02:26:44;8.63;;;5.10;;
4885;SDS011;2457;51.788;6.136;2023-12-07T02:29:11;10.90;;;5.07;;
4885;SDS011;2457;51.788;6.136;2023-12-07T02:31:39;9.83;;;5.27;;
4885;SDS011;2457;51.788;6.136;2023-12-07T02:34:06;7.83;;;4.90;;
4885;SDS011;2457;51.788;6.136;2023-12-07T02:36:33;6.50;;;4.43;;
4885;SDS011;2457;51.788;6.136;2023-12-07T02:39:02;9.80;;;4.13;;
4885;SDS011;2457;51.788;6.136;2023-12-07T02:41:32;8.00;;;5.27;;
4885;SDS011;2457;51.788;6.136;2023-12-07T02:44:00;7.93;;;5.63;;
4885;SDS011;2457;51.788;6.136;2023-12-07T02:46:28;8.07;;;4.83;;
4885;SDS011;2457;51.788;6.136;2023-12-07T02:48:56;8.97;;;5.60;;
4885;SDS011;2457;51.788;6.136;2023-12-07T02:51:24;8.03;;;4.30;;
4885;SDS011;2457;51.788;6.136;2023-12-07T02:53:52;10.23;;;5.07;;
4885;SDS011;2457;51.788;6.136;2023-12-07T02:56:19;9.30;;;4.80;;
4885;SDS011;2457;51.788;6.136;2023-12-07T02:58:46;8.93;;;4.70;;
4885;SDS011;2457;51.788;6.136;2023-12-07T03:01:13;9.50;;;5.90;;
4885;SDS011;2457;51.788;6.136;2023-12-07T03:03:41;7.10;;;4.77;;
4885;SDS011;2457;51.788;6.136;2023-12-07T03:06:08;9.30;;;5.83;;
4885;SDS011;2457;51.788;6.136;2023-12-07T03:08:35;9.63;;;6.10;;
4885;SDS011;2457;51.788;6.136;2023-12-07T03:11:03;10.60;;;5.60;;
4885;SDS011;2457;51.788;6.136;2023-12-07T03:13:30;9.60;;;5.90;;
4885;SDS011;2457;51.788;6.136;2023-12-07T03:15:57;9.43;;;5.90;;
4885;SDS011;2457;51.788;6.136;2023-12-07T03:18:24;10.60;;;5.87;;
4885;SDS011;2457;51.788;6.136;2023-12-07T03:20:52;10.13;;;6.33;;
4885;SDS011;2457;51.788;6.136;2023-12-07T03:23:19;12.10;;;6.90;;
4885;SDS011;2457;51.788;6.136;2023-12-07T03:25:46;12.63;;;6.83;;
4885;SDS011;2457;51.788;6.136;2023-12-07T03:28:13;15.40;;;6.57;;
4885;SDS011;2457;51.788;6.136;2023-12-07T03:30:41;10.20;;;6.10;;
4885;SDS011;2457;51.788;6.136;2023-12-07T03:33:08;11.33;;;6.27;;
4885;SDS011;2457;51.788;6.136;2023-12-07T03:35:35;12.77;;;7.40;;
4885;SDS011;2457;51.788;6.136;2023-12-07T03:38:02;12.00;;;6.67;;
4885;SDS011;2457;51.788;6.136;2023-12-07T03:40:30;14.60;;;7.60;;
4885;SDS011;2457;51.788;6.136;2023-12-07T03:42:57;15.50;;;7.67;;
4885;SDS011;2457;51.788;6.136;2023-12-07T03:45:24;12.03;;;6.80;;
4885;SDS011;2457;51.788;6.136;2023-12-07T03:47:51;13.63;;;6.97;;
4885;SDS011;2457;51.788;6.136;2023-12-07T03:50:19;11.40;;;7.10;;
4885;SDS011;2457;51.788;6.136;2023-12-07T03:52:46;10.40;;;6.40;;
4885;SDS011;2457;51.788;6.136;2023-12-07T03:55:13;11.33;;;6.80;;
4885;SDS011;2457;51.788;6.136;2023-12-07T03:57:41;13.47;;;7.40;;
4885;SDS011;2457;51.788;6.136;2023-12-07T04:00:10;10.73;;;6.17;;
4885;SDS011;2457;51.788;6.136;2023-12-07T04:02:37;12.03;;;6.03;;
4885;SDS011;2457;51.788;6.136;2023-12-07T04:05:04;10.70;;;6.00;;
4885;SDS011;2457;51.788;6.136;2023-12-07T04:07:31;9.03;;;5.70;;
4885;SDS011;2457;51.788;6.136;2023-12-07T04:09:59;8.03;;;4.77;;
4885;SDS011;2457;51.788;6.136;2023-12-07T04:12:26;8.80;;;5.30;;
4885;SDS011;2457;51.788;6.136;2023-12-07T04:14:53;8.13;;;4.73;;
4885;SDS011;2457;51.788;6.136;2023-12-07T04:17:21;7.60;;;4.67;;
4885;SDS011;2457;51.788;6.136;2023-12-07T04:19:48;7.23;;;4.70;;
4885;SDS011;2457;51.788;6.136;2023-12-07T04:22:15;7.03;;;4.30;;
4885;SDS011;2457;51.788;6.136;2023-12-07T04:24:42;8.43;;;5.43;;
4885;SDS011;2457;51.788;6.136;2023-12-07T04:27:10;7.80;;;4.80;;
4885;SDS011;2457;51.788;6.136;2023-12-07T04:29:37;8.50;;;4.43;;
4885;SDS011;2457;51.788;6.136;2023-12-07T04:32:05;7.00;;;4.57;;
4885;SDS011;2457;51.788;6.136;2023-12-07T04:34:33;7.13;;;4.40;;
4885;SDS011;2457;51.788;6.136;2023-12-07T04:37:00;9.43;;;5.20;;
4885;SDS011;2457;51.788;6.136;2023-12-07T04:39:28;6.73;;;4.40;;
4885;SDS011;2457;51.788;6.136;2023-12-07T04:41:55;8.50;;;5.47;;
4885;SDS011;2457;51.788;6.136;2023-12-07T04:44:22;8.13;;;4.80;;
4885;SDS011;2457;51.788;6.136;2023-12-07T04:46:51;6.37;;;4.60;;
4885;SDS011;2457;51.788;6.136;2023-12-07T04:49:19;7.40;;;4.13;;
4885;SDS011;2457;51.788;6.136;2023-12-07T04:51:46;8.27;;;4.83;;
4885;SDS011;2457;51.788;6.136;2023-12-07T04:54:13;7.63;;;5.47;;
4885;SDS011;2457;51.788;6.136;2023-12-07T04:56:43;8.97;;;5.40;;
4885;SDS011;2457;51.788;6.136;2023-12-07T04:59:10;9.00;;;4.80;;
4885;SDS011;2457;51.788;6.136;2023-12-07T05:01:38;6.70;;;4.43;;
4885;SDS011;2457;51.788;6.136;2023-12-07T05:04:05;7.97;;;5.40;;
4885;SDS011;2457;51.788;6.136;2023-12-07T05:06:33;7.33;;;4.70;;
4885;SDS011;2457;51.788;6.136;2023-12-07T05:09:01;8.47;;;5.10;;
4885;SDS011;2457;51.788;6.136;2023-12-07T05:11:29;8.60;;;4.93;;
4885;SDS011;2457;51.788;6.136;2023-12-07T05:13:56;9.27;;;5.17;;
4885;SDS011;2457;51.788;6.136;2023-12-07T05:16:24;8.43;;;5.57;;
4885;SDS011;2457;51.788;6.136;2023-12-07T05:18:51;8.10;;;5.20;;
4885;SDS011;2457;51.788;6.136;2023-12-07T05:21:18;6.97;;;4.73;;
4885;SDS011;2457;51.788;6.136;2023-12-07T05:23:46;9.93;;;5.50;;
4885;SDS011;2457;51.788;6.136;2023-12-07T05:26:13;9.50;;;6.00;;
4885;SDS011;2457;51.788;6.136;2023-12-07T05:28:41;10.70;;;6.17;;
4885;SDS011;2457;51.788;6.136;2023-12-07T05:31:08;11.80;;;7.20;;
4885;SDS011;2457;51.788;6.136;2023-12-07T05:33:35;10.70;;;6.10;;
4885;SDS011;2457;51.788;6.136;2023-12-07T05:36:03;11.30;;;6.97;;
4885;SDS011;2457;51.788;6.136;2023-12-07T05:38:30;9.70;;;6.27;;
4885;SDS011;2457;51.788;6.136;2023-12-07T05:40:57;12.40;;;6.83;;
4885;SDS011;2457;51.788;6.136;2023-12-07T05:43:25;10.50;;;7.13;;
4885;SDS011;2457;51.788;6.136;2023-12-07T05:45:52;12.00;;;6.57;;
4885;SDS011;2457;51.788;6.136;2023-12-07T05:48:19;10.23;;;6.50;;
4885;SDS011;2457;51.788;6.136;2023-12-07T05:50:46;11.63;;;6.43;;
4885;SDS011;2457;51.788;6.136;2023-12-07T05:53:14;10.57;;;5.77;;
4885;SDS011;2457;51.788;6.136;2023-12-07T05:55:41;9.60;;;6.00;;
4885;SDS011;2457;51.788;6.136;2023-12-07T05:58:08;8.50;;;5.80;;
4885;SDS011;2457;51.788;6.136;2023-12-07T06:00:35;8.33;;;6.03;;
4885;SDS011;2457;51.788;6.136;2023-12-07T06:03:03;9.17;;;6.30;;
4885;SDS011;2457;51.788;6.136;2023-12-07T06:05:31;8.77;;;5.80;;
4885;SDS011;2457;51.788;6.136;2023-12-07T06:07:58;9.17;;;5.27;;
4885;SDS011;2457;51.788;6.136;2023-12-07T06:10:26;8.27;;;5.40;;
4885;SDS011;2457;51.788;6.136;2023-12-07T06:12:53;10.23;;;6.27;;
4885;SDS011;2457;51.788;6.136;2023-12-07T06:15:22;8.70;;;5.77;;
4885;SDS011;2457;51.788;6.136;2023-12-07T06:17:49;8.47;;;5.70;;
4885;SDS011;2457;51.788;6.136;2023-12-07T06:20:17;7.80;;;5.23;;
4885;SDS011;2457;51.788;6.136;2023-12-07T06:22:44;10.00;;;6.60;;
4885;SDS011;2457;51.788;6.136;2023-12-07T06:25:11;10.23;;;6.63;;
4885;SDS011;2457;51.788;6.136;2023-12-07T06:27:39;10.50;;;6.87;;
4885;SDS011;2457;51.788;6.136;2023-12-07T06:30:06;9.53;;;5.77;;
4885;SDS011;2457;51.788;6.136;2023-12-07T06:32:34;8.60;;;5.60;;
4885;SDS011;2457;51.788;6.136;2023-12-07T06:35:01;10.10;;;6.67;;
4885;SDS011;2457;51.788;6.136;2023-12-07T06:37:30;9.40;;;5.87;;
4885;SDS011;2457;51.788;6.136;2023-12-07T06:39:57;9.57;;;6.30;;
4885;SDS011;2457;51.788;6.136;2023-12-07T06:42:26;7.70;;;5.20;;
4885;SDS011;2457;51.788;6.136;2023-12-07T06:44:54;10.67;;;6.57;;
4885;SDS011;2457;51.788;6.136;2023-12-07T06:47:21;10.60;;;6.60;;
4885;SDS011;2457;51.788;6.136;2023-12-07T06:49:48;10.23;;;6.50;;
4885;SDS011;2457;51.788;6.136;2023-12-07T06:52:15;7.57;;;5.43;;
4885;SDS011;2457;51.788;6.136;2023-12-07T06:54:43;10.57;;;6.33;;
4885;SDS011;2457;51.788;6.136;2023-12-07T06:57:10;13.23;;;8.00;;
4885;SDS011;2457;51.788;6.136;2023-12-07T06:59:37;10.15;;;6.30;;
4885;SDS011;2457;51.788;6.136;2023-12-07T07:02:04;10.80;;;7.50;;
4885;SDS011;2457;51.788;6.136;2023-12-07T07:04:32;11.57;;;6.80;;
4885;SDS011;2457;51.788;6.136;2023-12-07T07:06:59;9.60;;;6.57;;
4885;SDS011;2457;51.788;6.136;2023-12-07T07:09:26;8.77;;;5.90;;
4885;SDS011;2457;51.788;6.136;2023-12-07T07:11:53;9.03;;;6.10;;
4885;SDS011;2457;51.788;6.136;2023-12-07T07:14:21;10.50;;;6.80;;
4885;SDS011;2457;51.788;6.136;2023-12-07T07:16:48;11.83;;;7.93;;
4885;SDS011;2457;51.788;6.136;2023-12-07T07:19:15;10.20;;;7.20;;
4885;SDS011;2457;51.788;6.136;2023-12-07T07:21:43;10.50;;;7.50;;
4885;SDS011;2457;51.788;6.136;2023-12-07T07:24:10;12.33;;;7.20;;
4885;SDS011;2457;51.788;6.136;2023-12-07T07:26:38;11.07;;;7.37;;
4885;SDS011;2457;51.788;6.136;2023-12-07T07:29:05;10.50;;;7.33;;
4885;SDS011;2457;51.788;6.136;2023-12-07T07:31:32;12.27;;;6.90;;
4885;SDS011;2457;51.788;6.136;2023-12-07T07:34:01;10.90;;;6.67;;
4885;SDS011;2457;51.788;6.136;2023-12-07T07:36:28;9.90;;;6.50;;
4885;SDS011;2457;51.788;6.136;2023-12-07T07:38:56;10.00;;;6.53;;
4885;SDS011;2457;51.788;6.136;2023-12-07T07:41:23;10.23;;;6.33;;
4885;SDS011;2457;51.788;6.136;2023-12-07T07:43:50;8.73;;;5.80;;
4885;SDS011;2457;51.788;6.136;2023-12-07T07:46:17;10.37;;;6.13;;
4885;SDS011;2457;51.788;6.136;2023-12-07T07:48:44;10.07;;;6.40;;
4885;SDS011;2457;51.788;6.136;2023-12-07T07:51:12;10.00;;;6.47;;
4885;SDS011;2457;51.788;6.136;2023-12-07T07:53:39;11.67;;;6.87;;
4885;SDS011;2457;51.788;6.136;2023-12-07T07:56:06;10.00;;;5.87;;
4885;SDS011;2457;51.788;6.136;2023-12-07T07:58:35;9.00;;;6.07;;
4885;SDS011;2457;51.788;6.136;2023-12-07T08:01:02;8.70;;;5.63;;
4885;SDS011;2457;51.788;6.136;2023-12-07T08:03:29;9.77;;;6.00;;
4885;SDS011;2457;51.788;6.136;2023-12-07T08:05:57;9.63;;;5.40;;
4885;SDS011;2457;51.788;6.136;2023-12-07T08:08:24;11.30;;;6.30;;
4885;SDS011;2457;51.788;6.136;2023-12-07T08:10:52;10.40;;;6.40;;
4885;SDS011;2457;51.788;6.136;2023-12-07T08:13:20;11.63;;;6.03;;
4885;SDS011;2457;51.788;6.136;2023-12-07T08:15:47;8.63;;;5.87;;
4885;SDS011;2457;51.788;6.136;2023-12-07T08:18:14;11.40;;;5.83;;
4885;SDS011;2457;51.788;6.136;2023-12-07T08:20:41;9.63;;;5.50;;
4885;SDS011;2457;51.788;6.136;2023-12-07T08:23:09;9.70;;;5.53;;
4885;SDS011;2457;51.788;6.136;2023-12-07T08:25:40;9.30;;;6.07;;
4885;SDS011;2457;51.788;6.136;2023-12-07T08:28:07;8.70;;;5.53;;
4885;SDS011;2457;51.788;6.136;2023-12-07T08:30:35;9.43;;;5.27;;
4885;SDS011;2457;51.788;6.136;2023-12-07T08:33:03;10.20;;;5.60;;
4885;SDS011;2457;51.788;6.136;2023-12-07T08:35:30;9.37;;;5.67;;
4885;SDS011;2457;51.788;6.136;2023-12-07T08:37:57;9.60;;;5.40;;
4885;SDS011;2457;51.788;6.136;2023-12-07T08:40:24;9.60;;;5.83;;
4885;SDS011;2457;51.788;6.136;2023-12-07T08:42:54;9.63;;;4.90;;
4885;SDS011;2457;51.788;6.136;2023-12-07T08:45:20;8.20;;;4.87;;
4885;SDS011;2457;51.788;6.136;2023-12-07T08:47:48;8.60;;;5.23;;
4885;SDS011;2457;51.788;6.136;2023-12-07T08:50:15;9.43;;;5.23;;
4885;SDS011;2457;51.788;6.136;2023-12-07T08:52:43;8.97;;;5.47;;
4885;SDS011;2457;51.788;6.136;2023-12-07T08:55:10;10.73;;;5.47;;
4885;SDS011;2457;51.788;6.136;2023-12-07T08:57:38;11.97;;;5.83;;
4885;SDS011;2457;51.788;6.136;2023-12-07T09:00:05;10.53;;;5.80;;
4885;SDS011;2457;51.788;6.136;2023-12-07T09:02:33;12.00;;;5.83;;
4885;SDS011;2457;51.788;6.136;2023-12-07T09:05:00;11.30;;;6.50;;
4885;SDS011;2457;51.788;6.136;2023-12-07T09:07:28;11.97;;;6.27;;
4885;SDS011;2457;51.788;6.136;2023-12-07T09:09:55;13.20;;;6.53;;
4885;SDS011;2457;51.788;6.136;2023-12-07T09:12:22;10.57;;;6.10;;
4885;SDS011;2457;51.788;6.136;2023-12-07T09:14:49;12.90;;;6.87;;
4885;SDS011;2457;51.788;6.136;2023-12-07T09:17:17;12.20;;;6.93;;
4885;SDS011;2457;51.788;6.136;2023-12-07T09:19:44;12.13;;;7.07;;
4885;SDS011;2457;51.788;6.136;2023-12-07T09:22:12;13.10;;;6.97;;
4885;SDS011;2457;51.788;6.136;2023-12-07T09:24:41;14.23;;;7.50;;
4885;SDS011;2457;51.788;6.136;2023-12-07T09:27:08;12.40;;;6.47;;
4885;SDS011;2457;51.788;6.136;2023-12-07T09:29:36;16.97;;;7.00;;
4885;SDS011;2457;51.788;6.136;2023-12-07T09:32:04;13.70;;;7.10;;
4885;SDS011;2457;51.788;6.136;2023-12-07T09:34:31;10.93;;;6.67;;
4885;SDS011;2457;51.788;6.136;2023-12-07T09:37:05;13.90;;;7.70;;
4885;SDS011;2457;51.788;6.136;2023-12-07T09:39:32;14.33;;;7.73;;
4885;SDS011;2457;51.788;6.136;2023-12-07T09:42:00;15.57;;;7.60;;
4885;SDS011;2457;51.788;6.136;2023-12-07T09:44:27;12.90;;;7.50;;
4885;SDS011;2457;51.788;6.136;2023-12-07T09:46:55;15.80;;;7.73;;
4885;SDS011;2457;51.788;6.136;2023-12-07T09:49:22;13.87;;;7.50;;
4885;SDS011;2457;51.788;6.136;2023-12-07T09:51:49;15.00;;;8.47;;
4885;SDS011;2457;51.788;6.136;2023-12-07T09:54:18;17.33;;;8.07;;
4885;SDS011;2457;51.788;6.136;2023-12-07T09:56:46;15.33;;;8.00;;
4885;SDS011;2457;51.788;6.136;2023-12-07T09:59:14;17.33;;;8.20;;
4885;SDS011;2457;51.788;6.136;2023-12-07T10:01:41;17.73;;;8.73;;
4885;SDS011;2457;51.788;6.136;2023-12-07T10:04:21;17.67;;;8.77;;
4885;SDS011;2457;51.788;6.136;2023-12-07T10:06:52;16.20;;;8.97;;
4885;SDS011;2457;51.788;6.136;2023-12-07T10:09:20;18.57;;;9.30;;
4885;SDS011;2457;51.788;6.136;2023-12-07T10:11:50;17.40;;;9.73;;
4885;SDS011;2457;51.788;6.136;2023-12-07T10:14:19;18.33;;;9.50;;
4885;SDS011;2457;51.788;6.136;2023-12-07T10:16:54;19.37;;;10.17;;
4885;SDS011;2457;51.788;6.136;2023-12-07T10:19:22;22.23;;;9.60;;
4885;SDS011;2457;51.788;6.136;2023-12-07T10:21:51;17.93;;;10.00;;
4885;SDS011;2457;51.788;6.136;2023-12-07T10:24:22;18.60;;;10.27;;
4885;SDS011;2457;51.788;6.136;2023-12-07T10:26:50;18.77;;;9.80;;
4885;SDS011;2457;51.788;6.136;2023-12-07T10:29:18;20.63;;;10.67;;
4885;SDS011;2457;51.788;6.136;2023-12-07T10:31:49;18.13;;;9.60;;
4885;SDS011;2457;51.788;6.136;2023-12-07T10:34:19;24.87;;;10.17;;
4885;SDS011;2457;51.788;6.136;2023-12-07T10:36:47;19.53;;;10.43;;
4885;SDS011;2457;51.788;6.136;2023-12-07T10:39:15;20.23;;;10.60;;
4885;SDS011;2457;51.788;6.136;2023-12-07T10:41:42;22.17;;;10.90;;
4885;SDS011;2457;51.788;6.136;2023-12-07T10:44:11;19.83;;;10.97;;
4885;SDS011;2457;51.788;6.136;2023-12-07T10:46:39;17.87;;;9.90;;
4885;SDS011;2457;51.788;6.136;2023-12-07T10:49:08;19.67;;;9.80;;
4885;SDS011;2457;51.788;6.136;2023-12-07T10:54:06;17.17;;;9.47;;
4885;SDS011;2457;51.788;6.136;2023-12-07T10:56:38;18.80;;;9.80;;
4885;SDS011;2457;51.788;6.136;2023-12-07T10:59:06;18.97;;;10.60;;
4885;SDS011;2457;51.788;6.136;2023-12-07T11:01:37;25.20;;;11.13;;
4885;SDS011;2457;51.788;6.136;2023-12-07T11:04:06;20.77;;;11.10;;
4885;SDS011;2457;51.788;6.136;2023-12-07T11:06:33;21.57;;;11.37;;
4885;SDS011;2457;51.788;6.136;2023-12-07T11:09:05;22.97;;;10.83;;
4885;SDS011;2457;51.788;6.136;2023-12-07T11:11:52;19.57;;;10.23;;
4885;SDS011;2457;51.788;6.136;2023-12-07T11:14:20;20.20;;;9.90;;
4885;SDS011;2457;51.788;6.136;2023-12-07T11:16:47;16.80;;;9.33;;
4885;SDS011;2457;51.788;6.136;2023-12-07T11:22:01;18.57;;;9.57;;
4885;SDS011;2457;51.788;6.136;2023-12-07T11:24:29;20.30;;;9.70;;
4885;SDS011;2457;51.788;6.136;2023-12-07T11:26:57;25.40;;;10.53;;
4885;SDS011;2457;51.788;6.136;2023-12-07T11:29:25;19.70;;;10.80;;
4885;SDS011;2457;51.788;6.136;2023-12-07T11:31:56;21.30;;;11.30;;
4885;SDS011;2457;51.788;6.136;2023-12-07T11:34:33;19.77;;;11.10;;
4885;SDS011;2457;51.788;6.136;2023-12-07T11:37:01;16.67;;;9.80;;
4885;SDS011;2457;51.788;6.136;2023-12-07T11:39:29;21.60;;;12.00;;
4885;SDS011;2457;51.788;6.136;2023-12-07T11:41:58;22.97;;;12.07;;
4885;SDS011;2457;51.788;6.136;2023-12-07T11:44:44;25.97;;;13.33;;
4885;SDS011;2457;51.788;6.136;2023-12-07T11:46:57;22.63;;;12.27;;
4885;SDS011;2457;51.788;6.136;2023-12-07T11:49:24;24.93;;;12.70;;
4885;SDS011;2457;51.788;6.136;2023-12-07T11:51:51;22.90;;;11.87;;
4885;SDS011;2457;51.788;6.136;2023-12-07T11:54:19;22.47;;;11.77;;
4885;SDS011;2457;51.788;6.136;2023-12-07T11:56:51;22.50;;;13.17;;
4885;SDS011;2457;51.788;6.136;2023-12-07T11:59:16;25.30;;;13.53;;
4885;SDS011;2457;51.788;6.136;2023-12-07T12:01:47;27.43;;;13.87;;
4885;SDS011;2457;51.788;6.136;2023-12-07T12:04:12;27.93;;;14.47;;
4885;SDS011;2457;51.788;6.136;2023-12-07T12:06:39;23.73;;;13.50;;
4885;SDS011;2457;51.788;6.136;2023-12-07T12:09:06;22.10;;;13.00;;
4885;SDS011;2457;51.788;6.136;2023-12-07T12:11:34;25.20;;;13.30;;
4885;SDS011;2457;51.788;6.136;2023-12-07T12:14:01;24.17;;;13.77;;
4885;SDS011;2457;51.788;6.136;2023-12-07T12:16:29;21.97;;;11.83;;
4885;SDS011;2457;51.788;6.136;2023-12-07T12:18:56;22.90;;;12.10;;
4885;SDS011;2457;51.788;6.136;2023-12-07T12:21:23;20.40;;;11.40;;
4885;SDS011;2457;51.788;6.136;2023-12-07T12:23:51;21.97;;;11.90;;
4885;SDS011;2457;51.788;6.136;2023-12-07T12:26:19;21.10;;;11.47;;
4885;SDS011;2457;51.788;6.136;2023-12-07T12:28:46;23.03;;;12.03;;
4885;SDS011;2457;51.788;6.136;2023-12-07T12:31:14;22.50;;;11.90;;
4885;SDS011;2457;51.788;6.136;2023-12-07T12:33:41;25.67;;;11.80;;
4885;SDS011;2457;51.788;6.136;2023-12-07T12:36:08;23.33;;;13.03;;
4885;SDS011;2457;51.788;6.136;2023-12-07T12:38:36;22.37;;;11.70;;
4885;SDS011;2457;51.788;6.136;2023-12-07T12:41:05;21.30;;;10.97;;
4885;SDS011;2457;51.788;6.136;2023-12-07T12:43:32;20.47;;;12.40;;
4885;SDS011;2457;51.788;6.136;2023-12-07T12:46:00;20.90;;;11.83;;
4885;SDS011;2457;51.788;6.136;2023-12-07T12:48:27;24.20;;;12.20;;
4885;SDS011;2457;51.788;6.136;2023-12-07T12:50:55;23.10;;;11.20;;
4885;SDS011;2457;51.788;6.136;2023-12-07T12:53:22;19.30;;;10.17;;
4885;SDS011;2457;51.788;6.136;2023-12-07T12:55:51;18.03;;;10.03;;
4885;SDS011;2457;51.788;6.136;2023-12-07T12:58:18;20.80;;;10.90;;
4885;SDS011;2457;51.788;6.136;2023-12-07T13:00:47;18.03;;;11.43;;
4885;SDS011;2457;51.788;6.136;2023-12-07T13:03:15;20.63;;;11.27;;
4885;SDS011;2457;51.788;6.136;2023-12-07T13:05:42;18.77;;;10.17;;
4885;SDS011;2457;51.788;6.136;2023-12-07T13:08:09;19.63;;;10.40;;
4885;SDS011;2457;51.788;6.136;2023-12-07T13:10:37;17.33;;;9.27;;
4885;SDS011;2457;51.788;6.136;2023-12-07T13:13:04;16.80;;;9.70;;
4885;SDS011;2457;51.788;6.136;2023-12-07T13:15:33;17.80;;;9.57;;
4885;SDS011;2457;51.788;6.136;2023-12-07T13:18:00;21.20;;;11.23;;
4885;SDS011;2457;51.788;6.136;2023-12-07T13:20:27;16.80;;;10.70;;
4885;SDS011;2457;51.788;6.136;2023-12-07T13:22:55;19.87;;;11.20;;
4885;SDS011;2457;51.788;6.136;2023-12-07T13:25:22;18.83;;;10.63;;
4885;SDS011;2457;51.788;6.136;2023-12-07T13:27:50;18.20;;;10.40;;
4885;SDS011;2457;51.788;6.136;2023-12-07T13:30:17;17.20;;;10.03;;
4885;SDS011;2457;51.788;6.136;2023-12-07T13:32:44;19.40;;;10.93;;
4885;SDS011;2457;51.788;6.136;2023-12-07T13:35:11;19.07;;;10.80;;
4885;SDS011;2457;51.788;6.136;2023-12-07T13:37:39;16.20;;;8.93;;
4885;SDS011;2457;51.788;6.136;2023-12-07T13:40:06;16.10;;;8.73;;
4885;SDS011;2457;51.788;6.136;2023-12-07T13:42:36;15.60;;;9.67;;
4885;SDS011;2457;51.788;6.136;2023-12-07T13:45:04;18.40;;;10.53;;
4885;SDS011;2457;51.788;6.136;2023-12-07T13:47:31;15.77;;;8.80;;
4885;SDS011;2457;51.788;6.136;2023-12-07T13:49:58;17.93;;;9.97;;
4885;SDS011;2457;51.788;6.136;2023-12-07T13:52:29;14.93;;;8.83;;
4885;SDS011;2457;51.788;6.136;2023-12-07T13:54:56;16.00;;;9.23;;
4885;SDS011;2457;51.788;6.136;2023-12-07T13:57:24;18.60;;;9.90;;
4885;SDS011;2457;51.788;6.136;2023-12-07T13:59:51;14.87;;;9.20;;
4885;SDS011;2457;51.788;6.136;2023-12-07T14:02:18;19.80;;;9.20;;
4885;SDS011;2457;51.788;6.136;2023-12-07T14:04:46;16.70;;;9.00;;
4885;SDS011;2457;51.788;6.136;2023-12-07T14:07:20;15.73;;;8.90;;
4885;SDS011;2457;51.788;6.136;2023-12-07T14:09:50;16.20;;;8.57;;
4885;SDS011;2457;51.788;6.136;2023-12-07T14:12:17;16.00;;;8.97;;
4885;SDS011;2457;51.788;6.136;2023-12-07T14:14:45;14.20;;;8.87;;
4885;SDS011;2457;51.788;6.136;2023-12-07T14:17:13;14.43;;;9.00;;
4885;SDS011;2457;51.788;6.136;2023-12-07T14:19:41;16.73;;;9.20;;
4885;SDS011;2457;51.788;6.136;2023-12-07T14:22:09;13.20;;;8.13;;
4885;SDS011;2457;51.788;6.136;2023-12-07T14:24:36;14.57;;;8.70;;
4885;SDS011;2457;51.788;6.136;2023-12-07T14:27:05;12.93;;;8.03;;
4885;SDS011;2457;51.788;6.136;2023-12-07T14:29:32;15.67;;;9.20;;
4885;SDS011;2457;51.788;6.136;2023-12-07T14:32:00;15.33;;;8.53;;
4885;SDS011;2457;51.788;6.136;2023-12-07T14:34:27;12.27;;;8.10;;
4885;SDS011;2457;51.788;6.136;2023-12-07T14:36:55;13.67;;;8.77;;
4885;SDS011;2457;51.788;6.136;2023-12-07T14:39:22;15.90;;;8.70;;
4885;SDS011;2457;51.788;6.136;2023-12-07T14:41:50;14.00;;;7.93;;
4885;SDS011;2457;51.788;6.136;2023-12-07T14:44:17;13.90;;;8.00;;
4885;SDS011;2457;51.788;6.136;2023-12-07T14:46:46;17.10;;;9.47;;
4885;SDS011;2457;51.788;6.136;2023-12-07T14:49:14;11.90;;;7.93;;
4885;SDS011;2457;51.788;6.136;2023-12-07T14:51:41;15.00;;;8.27;;
4885;SDS011;2457;51.788;6.136;2023-12-07T14:54:08;12.57;;;7.90;;
4885;SDS011;2457;51.788;6.136;2023-12-07T14:56:39;15.53;;;8.47;;
4885;SDS011;2457;51.788;6.136;2023-12-07T14:59:06;14.70;;;7.67;;
4885;SDS011;2457;51.788;6.136;2023-12-07T15:01:36;15.60;;;8.10;;
4885;SDS011;2457;51.788;6.136;2023-12-07T15:04:05;12.93;;;7.63;;
4885;SDS011;2457;51.788;6.136;2023-12-07T15:06:32;12.53;;;7.20;;
4885;SDS011;2457;51.788;6.136;2023-12-07T15:09:02;11.33;;;7.07;;
4885;SDS011;2457;51.788;6.136;2023-12-07T15:11:33;11.70;;;7.37;;
4885;SDS011;2457;51.788;6.136;2023-12-07T15:14:01;12.97;;;8.10;;
4885;SDS011;2457;51.788;6.136;2023-12-07T15:16:29;13.90;;;7.63;;